sensor_id;sensor_type;location;lat;lon;timestamp;P1;durP1;ratioP1;P2;durP2;ratioP2
6953;SDS011;3516;47.980;8.808;2022-12-08T04:59:39;1.88;;;1.50;;
6953;SDS011;3516;47.980;8.808;2022-12-08T05:02:05;1.88;;;1.40;;
6953;SDS011;3516;47.980;8.808;2022-12-08T05:04:32;1.42;;;1.33;;
6953;SDS011;3516;47.980;8.808;2022-12-08T05:06:59;3.03;;;1.25;;
6953;SDS011;3516;47.980;8.808;2022-12-08T05:09:26;1.73;;;1.20;;
6953;SDS011;3516;47.980;8.808;2022-12-08T05:11:53;1.52;;;1.20;;
6953;SDS011;3516;47.980;8.808;2022-12-08T05:14:19;1.35;;;1.25;;
6953;SDS011;3516;47.980;8.808;2022-12-08T05:16:48;1.63;;;1.15;;
6953;SDS011;3516;47.980;8.808;2022-12-08T05:19:15;10.98;;;1.60;;
6953;SDS011;3516;47.980;8.808;2022-12-08T05:21:42;6.00;;;1.27;;
6953;SDS011;3516;47.980;8.808;2022-12-08T05:24:09;5.15;;;1.50;;
6953;SDS011;3516;47.980;8.808;2022-12-08T05:26:36;3.45;;;1.35;;
6953;SDS011;3516;47.980;8.808;2022-12-08T05:29:03;6.97;;;2.10;;
6953;SDS011;3516;47.980;8.808;2022-12-08T05:31:29;8.60;;;2.03;;
6953;SDS011;3516;47.980;8.808;2022-12-08T05:33:58;14.88;;;2.47;;
6953;SDS011;3516;47.980;8.808;2022-12-08T05:36:24;7.93;;;1.77;;
6953;SDS011;3516;47.980;8.808;2022-12-08T05:38:51;8.15;;;1.90;;
6953;SDS011;3516;47.980;8.808;2022-12-08T05:41:18;8.00;;;2.30;;
6953;SDS011;3516;47.980;8.808;2022-12-08T05:43:46;12.00;;;2.70;;
6953;SDS011;3516;47.980;8.808;2022-12-08T05:46:13;21.67;;;3.60;;
6953;SDS011;3516;47.980;8.808;2022-12-08T05:48:41;12.50;;;3.10;;
6953;SDS011;3516;47.980;8.808;2022-12-08T05:51:12;13.55;;;3.33;;
6953;SDS011;3516;47.980;8.808;2022-12-08T05:53:42;12.50;;;3.47;;
6953;SDS011;3516;47.980;8.808;2022-12-08T05:56:09;12.77;;;2.67;;
6953;SDS011;3516;47.980;8.808;2022-12-08T05:58:35;31.52;;;13.85;;
6953;SDS011;3516;47.980;8.808;2022-12-08T06:01:02;25.67;;;13.57;;
6953;SDS011;3516;47.980;8.808;2022-12-08T06:03:29;40.42;;;14.43;;
6953;SDS011;3516;47.980;8.808;2022-12-08T06:05:56;31.10;;;13.82;;
6953;SDS011;3516;47.980;8.808;2022-12-08T06:08:24;36.20;;;17.17;;
6953;SDS011;3516;47.980;8.808;2022-12-08T06:10:51;34.25;;;15.60;;
6953;SDS011;3516;47.980;8.808;2022-12-08T06:13:17;42.05;;;15.00;;
6953;SDS011;3516;47.980;8.808;2022-12-08T10:29:25;6.97;;;3.20;;
6953;SDS011;3516;47.980;8.808;2022-12-08T10:31:55;12.68;;;3.38;;
6953;SDS011;3516;47.980;8.808;2022-12-08T10:34:24;10.98;;;3.20;;
6953;SDS011;3516;47.980;8.808;2022-12-08T10:37:01;10.13;;;2.78;;
6953;SDS011;3516;47.980;8.808;2022-12-08T10:39:35;7.07;;;3.20;;
6953;SDS011;3516;47.980;8.808;2022-12-08T10:42:06;10.00;;;3.20;;
6953;SDS011;3516;47.980;8.808;2022-12-08T10:44:48;15.65;;;2.80;;
6953;SDS011;3516;47.980;8.808;2022-12-08T10:47:19;7.80;;;2.65;;
6953;SDS011;3516;47.980;8.808;2022-12-08T10:49:48;7.80;;;2.97;;
6953;SDS011;3516;47.980;8.808;2022-12-08T10:52:33;5.35;;;2.60;;
6953;SDS011;3516;47.980;8.808;2022-12-08T10:55:11;11.43;;;3.30;;
6953;SDS011;3516;47.980;8.808;2022-12-08T10:57:40;10.07;;;2.63;;
6953;SDS011;3516;47.980;8.808;2022-12-08T11:00:10;10.10;;;2.50;;
6953;SDS011;3516;47.980;8.808;2022-12-08T11:02:48;16.77;;;2.83;;
6953;SDS011;3516;47.980;8.808;2022-12-08T11:05:17;7.88;;;2.72;;
6953;SDS011;3516;47.980;8.808;2022-12-08T11:07:46;12.27;;;3.33;;
6953;SDS011;3516;47.980;8.808;2022-12-08T11:10:17;13.90;;;2.67;;
6953;SDS011;3516;47.980;8.808;2022-12-08T11:12:45;14.27;;;3.03;;
6953;SDS011;3516;47.980;8.808;2022-12-08T11:15:14;13.73;;;2.88;;
6953;SDS011;3516;47.980;8.808;2022-12-08T11:17:42;17.02;;;2.88;;
6953;SDS011;3516;47.980;8.808;2022-12-08T11:20:20;8.55;;;2.80;;
6953;SDS011;3516;47.980;8.808;2022-12-08T11:22:52;7.38;;;3.08;;
6953;SDS011;3516;47.980;8.808;2022-12-08T11:25:21;10.57;;;2.72;;
6953;SDS011;3516;47.980;8.808;2022-12-08T11:27:50;15.40;;;2.60;;
6953;SDS011;3516;47.980;8.808;2022-12-08T11:30:21;18.42;;;3.30;;
6953;SDS011;3516;47.980;8.808;2022-12-08T11:32:56;13.68;;;2.95;;
6953;SDS011;3516;47.980;8.808;2022-12-08T11:35:28;11.25;;;2.95;;
6953;SDS011;3516;47.980;8.808;2022-12-08T11:38:02;16.25;;;2.85;;
6953;SDS011;3516;47.980;8.808;2022-12-08T11:40:33;12.45;;;2.80;;
6953;SDS011;3516;47.980;8.808;2022-12-08T11:43:05;8.57;;;2.60;;
6953;SDS011;3516;47.980;8.808;2022-12-08T11:45:43;7.15;;;2.40;;
6953;SDS011;3516;47.980;8.808;2022-12-08T11:48:12;8.00;;;2.55;;
6953;SDS011;3516;47.980;8.808;2022-12-08T11:50:44;8.75;;;2.70;;
6953;SDS011;3516;47.980;8.808;2022-12-08T11:53:18;8.90;;;2.60;;
6953;SDS011;3516;47.980;8.808;2022-12-08T11:55:51;19.55;;;2.72;;
6953;SDS011;3516;47.980;8.808;2022-12-08T11:58:24;13.48;;;3.03;;
6953;SDS011;3516;47.980;8.808;2022-12-08T12:00:56;13.07;;;2.35;;
6953;SDS011;3516;47.980;8.808;2022-12-08T12:03:25;14.73;;;2.88;;
6953;SDS011;3516;47.980;8.808;2022-12-08T12:06:22;9.63;;;2.72;;
6953;SDS011;3516;47.980;8.808;2022-12-08T12:09:08;11.15;;;2.63;;
6953;SDS011;3516;47.980;8.808;2022-12-08T12:11:43;9.52;;;2.53;;
6953;SDS011;3516;47.980;8.808;2022-12-08T12:14:51;11.93;;;2.60;;
6953;SDS011;3516;47.980;8.808;2022-12-08T12:17:40;6.90;;;2.00;;
6953;SDS011;3516;47.980;8.808;2022-12-08T12:20:11;9.77;;;2.28;;
6953;SDS011;3516;47.980;8.808;2022-12-08T12:22:42;4.75;;;2.28;;
6953;SDS011;3516;47.980;8.808;2022-12-08T12:25:16;5.30;;;2.15;;
6953;SDS011;3516;47.980;8.808;2022-12-08T12:27:45;9.00;;;2.85;;
6953;SDS011;3516;47.980;8.808;2022-12-08T12:30:19;10.13;;;3.15;;
6953;SDS011;3516;47.980;8.808;2022-12-08T12:32:51;10.07;;;2.42;;
6953;SDS011;3516;47.980;8.808;2022-12-08T12:35:25;5.15;;;2.65;;
6953;SDS011;3516;47.980;8.808;2022-12-08T12:37:57;13.77;;;2.63;;
6953;SDS011;3516;47.980;8.808;2022-12-08T12:40:28;11.05;;;3.08;;
6953;SDS011;3516;47.980;8.808;2022-12-08T12:43:11;8.45;;;3.10;;
6953;SDS011;3516;47.980;8.808;2022-12-08T12:45:39;12.65;;;3.67;;
6953;SDS011;3516;47.980;8.808;2022-12-08T12:48:24;12.52;;;3.33;;
6953;SDS011;3516;47.980;8.808;2022-12-08T12:50:52;23.58;;;3.88;;
6953;SDS011;3516;47.980;8.808;2022-12-08T12:59:28;16.17;;;3.97;;
6953;SDS011;3516;47.980;8.808;2022-12-08T13:02:10;17.20;;;3.75;;
6953;SDS011;3516;47.980;8.808;2022-12-08T13:04:51;12.85;;;3.65;;
6953;SDS011;3516;47.980;8.808;2022-12-08T13:07:22;9.82;;;3.72;;
6953;SDS011;3516;47.980;8.808;2022-12-08T13:09:55;13.20;;;3.45;;
6953;SDS011;3516;47.980;8.808;2022-12-08T13:12:25;11.98;;;3.78;;
6953;SDS011;3516;47.980;8.808;2022-12-08T13:14:53;17.83;;;3.88;;
6953;SDS011;3516;47.980;8.808;2022-12-08T13:17:26;17.10;;;3.88;;
6953;SDS011;3516;47.980;8.808;2022-12-08T13:19:57;8.68;;;3.38;;
6953;SDS011;3516;47.980;8.808;2022-12-08T13:28:12;15.00;;;3.67;;
6953;SDS011;3516;47.980;8.808;2022-12-08T13:30:44;16.20;;;4.00;;
6953;SDS011;3516;47.980;8.808;2022-12-08T13:33:14;15.77;;;4.00;;
6953;SDS011;3516;47.980;8.808;2022-12-08T13:35:46;14.88;;;3.92;;
6953;SDS011;3516;47.980;8.808;2022-12-08T13:38:29;14.57;;;3.75;;
6953;SDS011;3516;47.980;8.808;2022-12-08T13:41:00;16.88;;;3.65;;
6953;SDS011;3516;47.980;8.808;2022-12-08T13:43:35;11.68;;;3.85;;
6953;SDS011;3516;47.980;8.808;2022-12-08T13:46:06;11.95;;;3.53;;
6953;SDS011;3516;47.980;8.808;2022-12-08T13:48:39;8.82;;;3.40;;
6953;SDS011;3516;47.980;8.808;2022-12-08T13:51:12;14.63;;;3.63;;
6953;SDS011;3516;47.980;8.808;2022-12-08T13:53:42;17.05;;;3.80;;
6953;SDS011;3516;47.980;8.808;2022-12-08T13:56:12;12.50;;;3.58;;
6953;SDS011;3516;47.980;8.808;2022-12-08T13:58:40;12.07;;;3.45;;
6953;SDS011;3516;47.980;8.808;2022-12-08T14:01:07;14.32;;;3.53;;
6953;SDS011;3516;47.980;8.808;2022-12-08T14:03:46;15.02;;;3.47;;
6953;SDS011;3516;47.980;8.808;2022-12-08T14:06:19;11.65;;;3.53;;
6953;SDS011;3516;47.980;8.808;2022-12-08T14:08:51;15.70;;;3.92;;
6953;SDS011;3516;47.980;8.808;2022-12-08T14:11:23;13.93;;;3.65;;
6953;SDS011;3516;47.980;8.808;2022-12-08T14:14:02;11.07;;;2.97;;
6953;SDS011;3516;47.980;8.808;2022-12-08T14:16:35;13.18;;;3.53;;
6953;SDS011;3516;47.980;8.808;2022-12-08T14:19:04;16.67;;;3.70;;
6953;SDS011;3516;47.980;8.808;2022-12-08T14:21:46;17.95;;;3.88;;
6953;SDS011;3516;47.980;8.808;2022-12-08T14:24:16;8.82;;;3.05;;
6953;SDS011;3516;47.980;8.808;2022-12-08T14:26:43;12.88;;;3.47;;
6953;SDS011;3516;47.980;8.808;2022-12-08T14:29:13;16.00;;;4.25;;
6953;SDS011;3516;47.980;8.808;2022-12-08T14:32:03;19.73;;;3.47;;
6953;SDS011;3516;47.980;8.808;2022-12-08T14:34:33;15.40;;;3.13;;
6953;SDS011;3516;47.980;8.808;2022-12-08T14:37:06;12.40;;;2.92;;
6953;SDS011;3516;47.980;8.808;2022-12-08T14:39:37;12.20;;;3.42;;
6953;SDS011;3516;47.980;8.808;2022-12-08T14:42:04;16.55;;;3.38;;
6953;SDS011;3516;47.980;8.808;2022-12-08T14:44:32;21.45;;;3.95;;
6953;SDS011;3516;47.980;8.808;2022-12-08T14:47:03;27.98;;;4.60;;
6953;SDS011;3516;47.980;8.808;2022-12-08T14:49:31;32.97;;;4.25;;
6953;SDS011;3516;47.980;8.808;2022-12-08T14:51:59;21.67;;;3.92;;
6953;SDS011;3516;47.980;8.808;2022-12-08T14:54:28;30.67;;;3.67;;
6953;SDS011;3516;47.980;8.808;2022-12-08T14:56:56;20.63;;;3.78;;
6953;SDS011;3516;47.980;8.808;2022-12-08T14:59:26;22.17;;;3.75;;
6953;SDS011;3516;47.980;8.808;2022-12-08T15:02:08;20.23;;;3.60;;
6953;SDS011;3516;47.980;8.808;2022-12-08T15:04:49;14.50;;;3.10;;
6953;SDS011;3516;47.980;8.808;2022-12-08T15:07:22;28.63;;;3.53;;
6953;SDS011;3516;47.980;8.808;2022-12-08T15:10:06;21.30;;;3.75;;
6953;SDS011;3516;47.980;8.808;2022-12-08T15:12:35;13.20;;;3.72;;
6953;SDS011;3516;47.980;8.808;2022-12-08T15:15:13;23.05;;;4.05;;
6953;SDS011;3516;47.980;8.808;2022-12-08T15:17:42;28.70;;;3.42;;
6953;SDS011;3516;47.980;8.808;2022-12-08T15:20:24;16.52;;;3.50;;
6953;SDS011;3516;47.980;8.808;2022-12-08T15:22:52;19.90;;;3.72;;
6953;SDS011;3516;47.980;8.808;2022-12-08T15:25:20;11.15;;;2.72;;
6953;SDS011;3516;47.980;8.808;2022-12-08T15:27:48;12.13;;;2.63;;
6953;SDS011;3516;47.980;8.808;2022-12-08T15:30:17;12.50;;;3.15;;
6953;SDS011;3516;47.980;8.808;2022-12-08T15:32:44;12.23;;;3.00;;
6953;SDS011;3516;47.980;8.808;2022-12-08T15:35:11;8.63;;;2.75;;
6953;SDS011;3516;47.980;8.808;2022-12-08T15:37:38;8.82;;;2.67;;
6953;SDS011;3516;47.980;8.808;2022-12-08T15:40:06;12.38;;;2.53;;
6953;SDS011;3516;47.980;8.808;2022-12-08T15:42:41;10.00;;;2.58;;
6953;SDS011;3516;47.980;8.808;2022-12-08T15:45:10;15.43;;;2.72;;
6953;SDS011;3516;47.980;8.808;2022-12-08T15:47:39;14.90;;;3.35;;
6953;SDS011;3516;47.980;8.808;2022-12-08T15:50:09;9.52;;;2.92;;
6953;SDS011;3516;47.980;8.808;2022-12-08T15:52:41;10.18;;;2.70;;
6953;SDS011;3516;47.980;8.808;2022-12-08T15:55:10;10.23;;;2.30;;
6953;SDS011;3516;47.980;8.808;2022-12-08T15:57:39;6.65;;;2.20;;
6953;SDS011;3516;47.980;8.808;2022-12-08T16:00:18;10.50;;;2.30;;
6953;SDS011;3516;47.980;8.808;2022-12-08T16:02:51;8.02;;;1.83;;
6953;SDS011;3516;47.980;8.808;2022-12-08T16:05:18;12.10;;;2.70;;
6953;SDS011;3516;47.980;8.808;2022-12-08T16:07:45;6.18;;;2.33;;
6953;SDS011;3516;47.980;8.808;2022-12-08T16:10:14;9.18;;;2.00;;
6953;SDS011;3516;47.980;8.808;2022-12-08T16:12:42;9.73;;;2.42;;
6953;SDS011;3516;47.980;8.808;2022-12-08T16:15:28;12.80;;;2.58;;
6953;SDS011;3516;47.980;8.808;2022-12-08T16:17:56;6.78;;;2.35;;
6953;SDS011;3516;47.980;8.808;2022-12-08T16:20:23;9.07;;;2.30;;
6953;SDS011;3516;47.980;8.808;2022-12-08T16:22:50;9.00;;;2.20;;
6953;SDS011;3516;47.980;8.808;2022-12-08T16:25:17;9.38;;;2.08;;
6953;SDS011;3516;47.980;8.808;2022-12-08T16:27:44;13.35;;;2.10;;
6953;SDS011;3516;47.980;8.808;2022-12-08T16:30:13;8.05;;;2.50;;
6953;SDS011;3516;47.980;8.808;2022-12-08T16:32:43;6.43;;;1.77;;
6953;SDS011;3516;47.980;8.808;2022-12-08T16:35:10;7.35;;;2.30;;
6953;SDS011;3516;47.980;8.808;2022-12-08T16:37:38;2.88;;;2.20;;
6953;SDS011;3516;47.980;8.808;2022-12-08T16:40:06;6.90;;;2.28;;
6953;SDS011;3516;47.980;8.808;2022-12-08T16:42:34;6.43;;;1.90;;
6953;SDS011;3516;47.980;8.808;2022-12-08T16:45:04;4.97;;;1.73;;
6953;SDS011;3516;47.980;8.808;2022-12-08T16:47:32;1.77;;;1.67;;
6953;SDS011;3516;47.980;8.808;2022-12-08T16:50:03;5.78;;;1.70;;
6953;SDS011;3516;47.980;8.808;2022-12-08T16:52:31;3.80;;;1.77;;
6953;SDS011;3516;47.980;8.808;2022-12-08T16:54:57;3.35;;;1.63;;
6953;SDS011;3516;47.980;8.808;2022-12-08T16:57:24;7.30;;;2.05;;
6953;SDS011;3516;47.980;8.808;2022-12-08T16:59:51;3.88;;;1.95;;
6953;SDS011;3516;47.980;8.808;2022-12-08T17:02:18;8.00;;;1.77;;
6953;SDS011;3516;47.980;8.808;2022-12-08T17:04:44;10.18;;;1.80;;
6953;SDS011;3516;47.980;8.808;2022-12-08T17:07:12;3.97;;;2.20;;
6953;SDS011;3516;47.980;8.808;2022-12-08T17:09:40;5.20;;;1.70;;
6953;SDS011;3516;47.980;8.808;2022-12-08T17:12:07;10.00;;;2.40;;
6953;SDS011;3516;47.980;8.808;2022-12-08T17:14:34;3.67;;;1.77;;
6953;SDS011;3516;47.980;8.808;2022-12-08T17:17:01;4.47;;;2.05;;
6953;SDS011;3516;47.980;8.808;2022-12-08T17:19:28;2.95;;;1.73;;
6953;SDS011;3516;47.980;8.808;2022-12-08T17:21:55;10.32;;;1.65;;
6953;SDS011;3516;47.980;8.808;2022-12-08T17:24:23;6.97;;;2.13;;
6953;SDS011;3516;47.980;8.808;2022-12-08T17:26:53;6.55;;;1.50;;
6953;SDS011;3516;47.980;8.808;2022-12-08T17:29:20;4.78;;;1.70;;
6953;SDS011;3516;47.980;8.808;2022-12-08T17:31:46;2.47;;;1.92;;
6953;SDS011;3516;47.980;8.808;2022-12-08T17:34:13;9.77;;;1.98;;
6953;SDS011;3516;47.980;8.808;2022-12-08T17:36:40;5.00;;;2.10;;
6953;SDS011;3516;47.980;8.808;2022-12-08T17:39:07;4.40;;;1.75;;
6953;SDS011;3516;47.980;8.808;2022-12-08T17:41:35;11.20;;;1.80;;
6953;SDS011;3516;47.980;8.808;2022-12-08T17:44:02;5.75;;;1.92;;
6953;SDS011;3516;47.980;8.808;2022-12-08T17:46:34;6.63;;;2.28;;
6953;SDS011;3516;47.980;8.808;2022-12-08T17:49:01;3.90;;;1.90;;
6953;SDS011;3516;47.980;8.808;2022-12-08T17:51:32;9.57;;;2.00;;
6953;SDS011;3516;47.980;8.808;2022-12-08T17:53:59;4.20;;;1.70;;
6953;SDS011;3516;47.980;8.808;2022-12-08T17:56:26;6.82;;;1.70;;
6953;SDS011;3516;47.980;8.808;2022-12-08T17:58:54;2.28;;;1.67;;
6953;SDS011;3516;47.980;8.808;2022-12-08T18:01:21;6.22;;;2.45;;
6953;SDS011;3516;47.980;8.808;2022-12-08T18:03:48;4.47;;;2.22;;
6953;SDS011;3516;47.980;8.808;2022-12-08T18:06:15;11.75;;;2.28;;
6953;SDS011;3516;47.980;8.808;2022-12-08T18:08:42;5.68;;;2.00;;
6953;SDS011;3516;47.980;8.808;2022-12-08T18:11:10;2.35;;;1.98;;
6953;SDS011;3516;47.980;8.808;2022-12-08T18:13:38;6.57;;;1.83;;
6953;SDS011;3516;47.980;8.808;2022-12-08T18:16:06;7.88;;;2.15;;
6953;SDS011;3516;47.980;8.808;2022-12-08T18:18:33;8.00;;;2.10;;
6953;SDS011;3516;47.980;8.808;2022-12-08T18:20:59;4.43;;;1.80;;
6953;SDS011;3516;47.980;8.808;2022-12-08T18:23:26;7.68;;;1.92;;
6953;SDS011;3516;47.980;8.808;2022-12-08T18:25:53;7.90;;;2.45;;
6953;SDS011;3516;47.980;8.808;2022-12-08T18:28:20;7.55;;;1.88;;
6953;SDS011;3516;47.980;8.808;2022-12-08T18:30:47;7.68;;;1.98;;
6953;SDS011;3516;47.980;8.808;2022-12-08T18:33:16;6.65;;;2.00;;
6953;SDS011;3516;47.980;8.808;2022-12-08T18:35:42;6.50;;;2.55;;
6953;SDS011;3516;47.980;8.808;2022-12-08T18:38:09;6.53;;;1.95;;
6953;SDS011;3516;47.980;8.808;2022-12-08T18:40:36;7.85;;;2.30;;
6953;SDS011;3516;47.980;8.808;2022-12-08T18:43:03;4.40;;;1.90;;
6953;SDS011;3516;47.980;8.808;2022-12-08T18:45:29;7.93;;;2.30;;
6953;SDS011;3516;47.980;8.808;2022-12-08T18:47:56;5.47;;;1.98;;
6953;SDS011;3516;47.980;8.808;2022-12-08T18:50:24;7.13;;;2.00;;
6953;SDS011;3516;47.980;8.808;2022-12-08T18:52:51;7.35;;;2.70;;
6953;SDS011;3516;47.980;8.808;2022-12-08T18:55:18;9.10;;;2.45;;
6953;SDS011;3516;47.980;8.808;2022-12-08T18:57:45;6.88;;;2.17;;
6953;SDS011;3516;47.980;8.808;2022-12-08T19:00:13;5.80;;;2.03;;
6953;SDS011;3516;47.980;8.808;2022-12-08T19:02:41;4.35;;;1.80;;
6953;SDS011;3516;47.980;8.808;2022-12-08T19:05:09;9.20;;;2.25;;
6953;SDS011;3516;47.980;8.808;2022-12-08T19:07:38;9.65;;;2.85;;
6953;SDS011;3516;47.980;8.808;2022-12-08T19:10:06;8.73;;;2.17;;
6953;SDS011;3516;47.980;8.808;2022-12-08T19:12:33;7.32;;;2.13;;
6953;SDS011;3516;47.980;8.808;2022-12-08T19:15:00;6.00;;;2.50;;
6953;SDS011;3516;47.980;8.808;2022-12-08T19:17:27;5.32;;;2.15;;
6953;SDS011;3516;47.980;8.808;2022-12-08T19:19:54;4.38;;;2.22;;
6953;SDS011;3516;47.980;8.808;2022-12-08T19:22:21;12.10;;;2.38;;
6953;SDS011;3516;47.980;8.808;2022-12-08T19:24:49;18.27;;;2.10;;
6953;SDS011;3516;47.980;8.808;2022-12-08T19:27:16;4.63;;;2.20;;
6953;SDS011;3516;47.980;8.808;2022-12-08T19:29:42;5.35;;;2.17;;
6953;SDS011;3516;47.980;8.808;2022-12-08T19:32:09;6.90;;;2.25;;
6953;SDS011;3516;47.980;8.808;2022-12-08T19:34:37;7.88;;;2.35;;
6953;SDS011;3516;47.980;8.808;2022-12-08T19:37:03;3.78;;;1.77;;
6953;SDS011;3516;47.980;8.808;2022-12-08T19:39:30;6.20;;;2.42;;
6953;SDS011;3516;47.980;8.808;2022-12-08T19:42:28;9.15;;;2.42;;
6953;SDS011;3516;47.980;8.808;2022-12-08T19:45:14;5.07;;;2.00;;
6953;SDS011;3516;47.980;8.808;2022-12-08T19:47:42;6.70;;;2.30;;
6953;SDS011;3516;47.980;8.808;2022-12-08T19:50:09;7.75;;;2.40;;
6953;SDS011;3516;47.980;8.808;2022-12-08T19:52:55;3.72;;;2.40;;
6953;SDS011;3516;47.980;8.808;2022-12-08T19:55:22;4.22;;;2.28;;
6953;SDS011;3516;47.980;8.808;2022-12-08T19:57:51;10.18;;;2.58;;
6953;SDS011;3516;47.980;8.808;2022-12-08T20:00:19;14.18;;;3.00;;
6953;SDS011;3516;47.980;8.808;2022-12-08T20:02:46;4.78;;;2.13;;
6953;SDS011;3516;47.980;8.808;2022-12-08T20:05:13;4.47;;;1.83;;
6953;SDS011;3516;47.980;8.808;2022-12-08T20:07:41;5.25;;;1.63;;
6953;SDS011;3516;47.980;8.808;2022-12-08T20:10:10;12.18;;;2.92;;
6953;SDS011;3516;47.980;8.808;2022-12-08T20:15:56;13.60;;;2.40;;
6953;SDS011;3516;47.980;8.808;2022-12-08T20:18:23;10.50;;;2.33;;
6953;SDS011;3516;47.980;8.808;2022-12-08T20:20:52;13.27;;;2.83;;
6953;SDS011;3516;47.980;8.808;2022-12-08T20:23:19;4.63;;;2.30;;
6953;SDS011;3516;47.980;8.808;2022-12-08T20:25:46;7.82;;;2.47;;
6953;SDS011;3516;47.980;8.808;2022-12-08T20:28:14;11.95;;;2.47;;
6953;SDS011;3516;47.980;8.808;2022-12-08T20:30:42;7.57;;;2.75;;
6953;SDS011;3516;47.980;8.808;2022-12-08T20:33:11;9.23;;;2.58;;
6953;SDS011;3516;47.980;8.808;2022-12-08T20:35:38;5.38;;;2.80;;
6953;SDS011;3516;47.980;8.808;2022-12-08T20:38:05;11.50;;;2.83;;
6953;SDS011;3516;47.980;8.808;2022-12-08T20:40:32;6.18;;;2.80;;
6953;SDS011;3516;47.980;8.808;2022-12-08T20:42:59;6.72;;;2.63;;
6953;SDS011;3516;47.980;8.808;2022-12-08T20:45:27;9.55;;;2.78;;
6953;SDS011;3516;47.980;8.808;2022-12-08T20:47:54;14.30;;;2.40;;
6953;SDS011;3516;47.980;8.808;2022-12-08T20:50:20;7.22;;;2.67;;
6953;SDS011;3516;47.980;8.808;2022-12-08T20:52:47;8.00;;;2.65;;
6953;SDS011;3516;47.980;8.808;2022-12-08T20:55:14;7.53;;;2.75;;
6953;SDS011;3516;47.980;8.808;2022-12-08T20:57:41;5.22;;;2.22;;
6953;SDS011;3516;47.980;8.808;2022-12-08T21:00:08;4.97;;;2.35;;
6953;SDS011;3516;47.980;8.808;2022-12-08T21:02:37;4.35;;;2.35;;
6953;SDS011;3516;47.980;8.808;2022-12-08T21:05:04;6.90;;;2.40;;
6953;SDS011;3516;47.980;8.808;2022-12-08T21:07:32;8.30;;;2.78;;
6953;SDS011;3516;47.980;8.808;2022-12-08T21:09:59;8.27;;;2.67;;
6953;SDS011;3516;47.980;8.808;2022-12-08T21:12:27;9.57;;;2.30;;
6953;SDS011;3516;47.980;8.808;2022-12-08T21:14:56;11.25;;;3.22;;
6953;SDS011;3516;47.980;8.808;2022-12-08T21:17:23;6.20;;;2.08;;
6953;SDS011;3516;47.980;8.808;2022-12-08T21:19:51;9.40;;;2.70;;
6953;SDS011;3516;47.980;8.808;2022-12-08T21:22:18;3.63;;;2.42;;
6953;SDS011;3516;47.980;8.808;2022-12-08T21:24:44;5.20;;;2.45;;
6953;SDS011;3516;47.980;8.808;2022-12-08T21:27:11;7.85;;;3.28;;
6953;SDS011;3516;47.980;8.808;2022-12-08T21:29:38;6.97;;;2.85;;
6953;SDS011;3516;47.980;8.808;2022-12-08T21:32:05;9.75;;;3.10;;
6953;SDS011;3516;47.980;8.808;2022-12-08T21:34:32;6.35;;;2.25;;
6953;SDS011;3516;47.980;8.808;2022-12-08T21:37:00;4.60;;;2.40;;
6953;SDS011;3516;47.980;8.808;2022-12-08T21:39:27;10.13;;;2.80;;
6953;SDS011;3516;47.980;8.808;2022-12-08T21:41:54;2.90;;;2.22;;
6953;SDS011;3516;47.980;8.808;2022-12-08T21:44:39;6.88;;;2.72;;
6953;SDS011;3516;47.980;8.808;2022-12-08T21:47:06;9.07;;;3.03;;
6953;SDS011;3516;47.980;8.808;2022-12-08T21:49:32;5.43;;;2.92;;
6953;SDS011;3516;47.980;8.808;2022-12-08T21:52:01;9.85;;;3.05;;
6953;SDS011;3516;47.980;8.808;2022-12-08T21:54:27;6.47;;;2.80;;
6953;SDS011;3516;47.980;8.808;2022-12-08T21:56:54;13.25;;;3.47;;
6953;SDS011;3516;47.980;8.808;2022-12-08T21:59:21;3.13;;;2.30;;
6953;SDS011;3516;47.980;8.808;2022-12-08T22:01:48;6.15;;;2.80;;
6953;SDS011;3516;47.980;8.808;2022-12-08T22:04:15;5.07;;;2.65;;
6953;SDS011;3516;47.980;8.808;2022-12-08T22:06:45;3.15;;;2.60;;
6953;SDS011;3516;47.980;8.808;2022-12-08T22:09:13;7.20;;;2.85;;
6953;SDS011;3516;47.980;8.808;2022-12-08T22:11:40;5.53;;;2.92;;
6953;SDS011;3516;47.980;8.808;2022-12-08T22:14:07;8.57;;;2.95;;
6953;SDS011;3516;47.980;8.808;2022-12-08T22:16:33;8.02;;;2.83;;
6953;SDS011;3516;47.980;8.808;2022-12-08T22:19:00;4.25;;;2.60;;
6953;SDS011;3516;47.980;8.808;2022-12-08T22:21:27;6.88;;;2.80;;
6953;SDS011;3516;47.980;8.808;2022-12-08T22:23:54;5.20;;;2.30;;
6953;SDS011;3516;47.980;8.808;2022-12-08T22:26:22;4.45;;;2.35;;
6953;SDS011;3516;47.980;8.808;2022-12-08T22:28:48;6.10;;;2.58;;
6953;SDS011;3516;47.980;8.808;2022-12-08T22:31:16;7.18;;;2.72;;
6953;SDS011;3516;47.980;8.808;2022-12-08T22:33:45;4.50;;;2.45;;
6953;SDS011;3516;47.980;8.808;2022-12-08T22:36:13;4.57;;;2.50;;
6953;SDS011;3516;47.980;8.808;2022-12-08T22:38:41;5.35;;;2.33;;
6953;SDS011;3516;47.980;8.808;2022-12-08T22:41:08;5.40;;;2.35;;
6953;SDS011;3516;47.980;8.808;2022-12-08T22:43:37;7.40;;;2.83;;
6953;SDS011;3516;47.980;8.808;2022-12-08T22:46:05;8.23;;;2.85;;
6953;SDS011;3516;47.980;8.808;2022-12-08T22:48:32;6.80;;;3.10;;
6953;SDS011;3516;47.980;8.808;2022-12-08T22:50:59;4.97;;;2.70;;
6953;SDS011;3516;47.980;8.808;2022-12-08T22:53:26;5.07;;;2.35;;
6953;SDS011;3516;47.980;8.808;2022-12-08T22:55:53;6.35;;;2.40;;
6953;SDS011;3516;47.980;8.808;2022-12-08T22:58:20;4.47;;;2.58;;
6953;SDS011;3516;47.980;8.808;2022-12-08T23:00:48;3.35;;;2.38;;
6953;SDS011;3516;47.980;8.808;2022-12-08T23:03:15;4.28;;;2.50;;
6953;SDS011;3516;47.980;8.808;2022-12-08T23:05:42;3.05;;;2.45;;
6953;SDS011;3516;47.980;8.808;2022-12-08T23:08:11;5.18;;;2.47;;
6953;SDS011;3516;47.980;8.808;2022-12-08T23:10:39;5.68;;;2.40;;
6953;SDS011;3516;47.980;8.808;2022-12-08T23:13:07;3.75;;;2.47;;
6953;SDS011;3516;47.980;8.808;2022-12-08T23:15:34;4.75;;;2.25;;
6953;SDS011;3516;47.980;8.808;2022-12-08T23:18:02;5.32;;;2.70;;
6953;SDS011;3516;47.980;8.808;2022-12-08T23:20:29;3.58;;;2.45;;
6953;SDS011;3516;47.980;8.808;2022-12-08T23:22:56;3.28;;;2.25;;
6953;SDS011;3516;47.980;8.808;2022-12-08T23:25:23;4.55;;;2.30;;
6953;SDS011;3516;47.980;8.808;2022-12-08T23:27:50;4.43;;;2.53;;
6953;SDS011;3516;47.980;8.808;2022-12-08T23:30:17;4.13;;;2.47;;
6953;SDS011;3516;47.980;8.808;2022-12-08T23:32:44;4.78;;;2.25;;
6953;SDS011;3516;47.980;8.808;2022-12-08T23:35:12;4.90;;;2.53;;
6953;SDS011;3516;47.980;8.808;2022-12-08T23:37:38;6.03;;;2.60;;
6953;SDS011;3516;47.980;8.808;2022-12-08T23:40:06;2.97;;;2.42;;
6953;SDS011;3516;47.980;8.808;2022-12-08T23:42:33;8.60;;;2.50;;
6953;SDS011;3516;47.980;8.808;2022-12-08T23:45:00;10.23;;;2.78;;
